Terminal Aerodrome Forecast
Issued by NWS

Home | Current Version | Previous Version | Text Only | Print | Product List | Glossary On
Versions: 1 2 3 4 5 6 7 8 9 10 11 12 13 14 15 16 17 18 19 20 21
962
FTUS46 KEKA 301720
TAFUKI
TAF
KUKI 301720Z 3018/3118 33013G19KT P6SM SCT040 SCT100
     FM301900 32018G26KT P6SM SCT040
     FM310200 32012G18KT P6SM SKC
     FM310500 33003KT P6SM SKC
     FM310800 00000KT P6SM SKC=

USA.gov is the U.S. government's official web portal to all federal, state and local government web resources and services.